createdAt,value
2022-12-05T00:03:50.805Z,18.17
2022-12-05T00:08:54.328Z,18.20
2022-12-05T00:13:57.708Z,18.21
2022-12-05T00:19:01.184Z,18.31
2022-12-05T00:24:04.611Z,18.37
2022-12-05T00:29:07.969Z,18.50
2022-12-05T00:34:11.311Z,18.31
2022-12-05T00:39:15.348Z,18.30
2022-12-05T00:44:18.820Z,18.34
2022-12-05T00:49:22.207Z,18.37
2022-12-05T00:54:25.590Z,18.36
2022-12-05T00:59:29.085Z,18.47
2022-12-05T01:04:32.446Z,18.44
2022-12-05T01:09:35.902Z,18.41
2022-12-05T01:14:39.248Z,18.43
2022-12-05T01:19:42.625Z,18.44
2022-12-05T01:24:45.983Z,18.49
2022-12-05T01:29:49.380Z,18.57
2022-12-05T01:34:52.813Z,18.46
2022-12-05T01:39:56.437Z,18.42
2022-12-05T01:45:00.028Z,18.42
2022-12-05T01:50:03.476Z,18.42
2022-12-05T01:55:06.831Z,18.40
2022-12-05T02:00:10.562Z,18.39
2022-12-05T02:05:14.003Z,18.32
2022-12-05T02:10:17.377Z,18.33
2022-12-05T02:15:20.799Z,18.32
2022-12-05T02:20:24.159Z,18.33
2022-12-05T02:25:27.555Z,18.32
2022-12-05T02:30:30.899Z,18.29
2022-12-05T02:35:34.268Z,18.27
2022-12-05T02:40:37.645Z,18.31
2022-12-05T02:45:41.140Z,18.27
2022-12-05T02:50:44.602Z,18.27
2022-12-05T02:55:47.957Z,18.28
2022-12-05T03:00:51.356Z,18.24
2022-12-05T03:05:54.758Z,18.23
2022-12-05T03:10:58.156Z,18.25
2022-12-05T03:16:01.605Z,18.25
2022-12-05T03:21:04.960Z,18.23
2022-12-05T03:26:12.131Z,18.21
2022-12-05T03:31:15.531Z,18.19
2022-12-05T03:36:18.954Z,18.17
2022-12-05T03:41:22.458Z,18.18
2022-12-05T03:46:25.848Z,18.19
2022-12-05T03:51:29.276Z,18.21
2022-12-05T03:56:32.651Z,18.20
2022-12-05T04:01:36.128Z,18.15
2022-12-05T04:06:39.609Z,18.13
2022-12-05T04:11:43.024Z,18.11
2022-12-05T04:17:04.830Z,18.09
2022-12-05T04:22:08.232Z,18.07
2022-12-05T04:27:11.661Z,18.04
2022-12-05T04:32:15.232Z,18.06
2022-12-05T04:37:19.566Z,18.07
2022-12-05T04:42:22.902Z,18.03
2022-12-05T04:47:26.291Z,18.02
2022-12-05T04:52:29.694Z,17.98
2022-12-05T04:57:33.078Z,17.96
2022-12-05T05:02:36.534Z,17.94
2022-12-05T05:07:40.004Z,17.94
2022-12-05T05:12:43.468Z,17.91
2022-12-05T05:17:46.872Z,17.89
2022-12-05T05:22:50.259Z,17.85
2022-12-05T05:27:53.680Z,17.85
2022-12-05T05:32:57.092Z,17.83
2022-12-05T05:38:00.503Z,17.81
2022-12-05T05:43:03.848Z,17.83
2022-12-05T05:48:07.320Z,17.78
2022-12-05T05:53:10.671Z,17.74
2022-12-05T05:58:14.055Z,17.75
2022-12-05T06:03:17.605Z,17.74
2022-12-05T06:08:21.118Z,17.71
2022-12-05T06:13:24.611Z,17.67
2022-12-05T06:18:27.966Z,17.65
2022-12-05T06:23:31.335Z,17.63
2022-12-05T06:28:34.772Z,17.60
2022-12-05T06:33:38.182Z,17.57
2022-12-05T06:38:42.434Z,17.55
2022-12-05T06:43:46.062Z,17.58
2022-12-05T06:48:49.458Z,17.60
2022-12-05T06:53:52.824Z,17.55
2022-12-05T06:58:56.614Z,17.54
2022-12-05T07:04:00.126Z,17.52
2022-12-05T07:09:03.515Z,17.49
2022-12-05T07:14:14.664Z,17.52
2022-12-05T07:19:22.652Z,17.49
2022-12-05T07:24:26.113Z,17.49
2022-12-05T07:29:29.538Z,17.49
2022-12-05T07:34:33.011Z,17.51
2022-12-05T07:39:36.395Z,17.50
2022-12-05T07:44:39.780Z,17.43
2022-12-05T07:49:43.151Z,17.41
2022-12-05T07:54:46.549Z,17.38
2022-12-05T07:59:50.126Z,17.40
2022-12-05T08:04:53.507Z,17.48
2022-12-05T08:09:57.028Z,17.60
2022-12-05T08:15:00.683Z,17.73
2022-12-05T08:20:04.125Z,17.79
2022-12-05T08:25:07.615Z,17.98
2022-12-05T08:30:10.998Z,17.81
2022-12-05T08:35:14.441Z,17.68
2022-12-05T08:40:17.867Z,17.68
2022-12-05T08:45:21.268Z,17.80
2022-12-05T08:50:24.769Z,17.74
2022-12-05T08:55:28.261Z,17.54
2022-12-05T09:00:31.664Z,17.61
2022-12-05T09:05:35.039Z,17.47
2022-12-05T09:10:38.468Z,17.57
2022-12-05T09:15:42.125Z,17.54
2022-12-05T09:20:45.733Z,17.39
2022-12-05T09:25:49.139Z,17.28
2022-12-05T09:30:52.607Z,15.55
2022-12-05T09:35:56.034Z,16.59
2022-12-05T09:40:59.555Z,16.99
2022-12-05T09:46:03.008Z,17.05
2022-12-05T09:51:06.506Z,17.10
2022-12-05T09:56:09.946Z,17.12
2022-12-05T10:01:13.667Z,17.11
2022-12-05T10:06:17.243Z,17.17
2022-12-05T10:11:20.684Z,17.10
2022-12-05T10:16:24.217Z,17.04
2022-12-05T10:21:27.691Z,17.06
2022-12-05T10:26:31.331Z,17.11
2022-12-05T10:31:34.864Z,17.19
2022-12-05T10:36:38.332Z,17.21
2022-12-05T10:41:41.736Z,17.13
2022-12-05T10:46:45.218Z,17.00
2022-12-05T10:51:48.715Z,17.02
2022-12-05T10:56:52.180Z,16.92
2022-12-05T11:01:56.185Z,16.97
2022-12-05T11:07:00.577Z,16.91
2022-12-05T11:12:04.005Z,16.92
2022-12-05T11:17:07.441Z,16.91
2022-12-05T11:22:10.858Z,16.86
2022-12-05T11:27:14.260Z,16.91
2022-12-05T11:32:17.680Z,16.91
2022-12-05T11:37:21.055Z,16.82
2022-12-05T11:42:24.436Z,16.80
2022-12-05T11:47:27.893Z,16.71
2022-12-05T11:52:34.706Z,16.74
2022-12-05T11:57:40.843Z,16.77
2022-12-05T12:02:44.993Z,16.79
2022-12-05T12:07:48.721Z,16.81
2022-12-05T12:12:52.168Z,16.82
2022-12-05T12:17:55.530Z,16.83
2022-12-05T12:22:58.916Z,16.84
2022-12-05T12:28:05.235Z,16.84
2022-12-05T12:33:08.765Z,16.83
2022-12-05T12:38:12.271Z,16.86
2022-12-05T12:43:31.192Z,16.87
2022-12-05T12:48:39.116Z,16.89
2022-12-05T12:53:42.504Z,16.90
2022-12-05T12:58:45.941Z,16.90
2022-12-05T13:03:51.764Z,15.94
2022-12-05T13:08:55.406Z,16.79
2022-12-05T13:13:59.302Z,17.11
2022-12-05T13:19:02.670Z,17.04
2022-12-05T13:24:06.120Z,17.09
2022-12-05T13:29:09.609Z,17.14
2022-12-05T13:34:13.016Z,17.15
2022-12-05T13:39:33.843Z,17.24
2022-12-05T13:44:37.298Z,17.40
2022-12-05T13:49:40.759Z,17.45
2022-12-05T13:54:44.379Z,17.68
2022-12-05T13:59:47.746Z,17.66
2022-12-05T14:04:54.035Z,17.74
2022-12-05T14:09:57.709Z,17.92
2022-12-05T14:15:01.646Z,18.00
2022-12-05T14:20:05.207Z,17.95
2022-12-05T14:25:08.640Z,17.97
2022-12-05T14:30:12.078Z,17.94
2022-12-05T14:35:15.507Z,17.94
2022-12-05T14:40:18.977Z,17.95
2022-12-05T14:45:22.492Z,17.97
2022-12-05T14:50:25.902Z,18.03
2022-12-05T14:55:29.364Z,18.01
2022-12-05T15:00:32.771Z,18.08
2022-12-05T15:05:36.184Z,18.09
2022-12-05T15:10:39.632Z,18.10
2022-12-05T15:15:43.085Z,18.02
2022-12-05T15:20:47.064Z,18.00
2022-12-05T15:25:54.555Z,18.07
2022-12-05T15:31:00.624Z,18.11
2022-12-05T15:36:04.141Z,18.15
2022-12-05T15:41:07.682Z,18.23
2022-12-05T15:46:11.133Z,18.16
2022-12-05T15:51:14.572Z,18.20
2022-12-05T15:56:17.988Z,18.12
2022-12-05T16:01:21.669Z,18.06
2022-12-05T16:06:25.246Z,18.00
2022-12-05T16:11:28.692Z,17.98
2022-12-05T16:21:56.376Z,18.01
2022-12-05T16:26:59.746Z,18.03
2022-12-05T16:32:03.187Z,18.09
2022-12-05T16:37:08.124Z,18.15
2022-12-05T16:42:13.774Z,18.06
2022-12-05T16:47:17.352Z,18.01
2022-12-05T16:52:20.877Z,18.04
2022-12-05T16:57:24.292Z,17.99
2022-12-05T17:02:27.804Z,17.97
2022-12-05T17:07:34.002Z,17.94
2022-12-05T17:12:37.757Z,17.91
2022-12-05T17:17:41.149Z,17.92
2022-12-05T17:22:44.577Z,17.94
2022-12-05T17:27:47.959Z,17.95
2022-12-05T17:32:51.353Z,17.90
2022-12-05T17:37:54.708Z,17.90
2022-12-05T17:42:58.190Z,17.91
2022-12-05T17:48:01.559Z,17.98
2022-12-05T17:53:07.460Z,17.86
2022-12-05T18:03:32.008Z,18.04
2022-12-05T18:08:39.495Z,18.00
2022-12-05T18:13:42.859Z,17.88
2022-12-05T18:18:46.598Z,18.06
2022-12-05T18:23:49.971Z,17.97
2022-12-05T18:28:54.815Z,17.92
2022-12-05T18:33:58.223Z,17.88
2022-12-05T18:39:01.621Z,17.85
2022-12-05T18:44:05.129Z,17.83
2022-12-05T18:49:08.735Z,17.85
2022-12-05T18:54:12.118Z,17.86
2022-12-05T18:59:15.548Z,17.86
2022-12-05T19:04:18.919Z,18.06
2022-12-05T19:09:22.340Z,17.92
2022-12-05T19:14:25.756Z,18.03
2022-12-05T19:19:29.182Z,18.07
2022-12-05T19:24:32.646Z,17.93
2022-12-05T19:29:36.052Z,17.92
2022-12-05T19:34:39.485Z,17.93
2022-12-05T19:39:43.251Z,17.86
2022-12-05T19:44:46.698Z,17.90
2022-12-05T19:49:50.392Z,17.93
2022-12-05T19:54:53.853Z,17.94
2022-12-05T19:59:57.612Z,17.94
2022-12-05T20:05:01.190Z,18.07
2022-12-05T20:10:04.591Z,18.15
2022-12-05T20:15:08.236Z,18.32
2022-12-05T20:20:11.595Z,18.35
2022-12-05T20:25:15.025Z,18.30
2022-12-05T20:30:18.418Z,18.34
2022-12-05T20:35:24.194Z,18.34
2022-12-05T20:40:28.032Z,18.32
2022-12-05T20:45:31.414Z,18.33
2022-12-05T20:50:34.840Z,18.35
2022-12-05T20:55:38.456Z,18.42
2022-12-05T21:00:43.533Z,18.43
2022-12-05T21:05:46.990Z,18.45
2022-12-05T21:10:50.421Z,18.52
2022-12-05T21:15:53.921Z,18.51
2022-12-05T21:20:57.650Z,18.50
2022-12-05T21:26:01.031Z,18.58
2022-12-05T21:31:04.440Z,18.58
2022-12-05T21:36:07.865Z,18.61
2022-12-05T21:41:11.956Z,18.65
2022-12-05T21:46:15.371Z,18.72
2022-12-05T21:51:18.854Z,18.74
2022-12-05T21:56:22.879Z,18.74
2022-12-05T22:01:26.465Z,18.82
2022-12-05T22:06:29.960Z,18.79
2022-12-05T22:11:33.454Z,18.74
2022-12-05T22:16:36.918Z,18.72
2022-12-05T22:21:40.353Z,18.71
2022-12-05T22:26:43.754Z,18.73
2022-12-05T22:31:47.279Z,18.45
2022-12-05T22:36:51.716Z,18.67
2022-12-05T22:41:55.129Z,18.74
2022-12-05T22:46:58.638Z,18.67
2022-12-05T22:52:02.145Z,18.73
2022-12-05T22:57:05.510Z,18.74
2022-12-05T23:02:08.906Z,18.70
2022-12-05T23:07:12.330Z,18.71
2022-12-05T23:12:15.812Z,18.70
2022-12-05T23:17:19.217Z,18.74
2022-12-05T23:22:22.581Z,18.71
2022-12-05T23:27:26.073Z,18.67
2022-12-05T23:32:29.464Z,18.61
2022-12-05T23:37:32.855Z,18.83
2022-12-05T23:42:36.235Z,19.08
2022-12-05T23:47:39.723Z,19.14
2022-12-05T23:52:43.122Z,19.20
2022-12-05T23:57:46.471Z,19.16
